Time;durP1;ratioP1;P1;durP2;ratioP2;P2;SDS_P1;SDS_P2;PMS_P1;PMS_P2;Temp;Humidity;BMP_temperature;BMP_pressure;BME280_temperature;BME280_humidity;BME280_pressure;Samples;Min_cycle;Max_cycle;Signal;HPM_P1;HPM_P2
2023/02/18 00:03:58;;;;;;;;;;;;;;;;;;;;;
2023/02/18 00:08:23;;;;;;;3.40;1.70;;;;;;;7.53;71.06;100000.05;127345;1305;128319;-68
2023/02/18 00:12:36;;;;;;;4.40;1.80;;;;;;;7.49;71.66;99995.61;126363;1299;114885;-66
2023/02/18 00:16:37;;;;;;;4.00;1.60;;;;;;;7.43;71.55;99992.84;121732;1299;5598906;-68
2023/02/18 00:20:39;;;;;;;4.30;1.60;;;;;;;7.40;71.33;99993.68;124064;1332;114907;-70
2023/02/18 00:29:14;;;;;;;2.50;0.90;;;;;;;7.36;69.99;100009.65;125641;1301;639487;-68
2023/02/18 00:33:04;;;;;;;2.80;1.10;;;;;;;7.28;69.66;100014.96;126898;1290;128249;-71
2023/02/18 00:37:08;;;;;;;1.40;0.70;;;;;;;7.22;69.24;100026.02;126407;1286;115387;-67
2023/02/18 00:41:08;;;;;;;4.20;1.20;;;;;;;7.16;69.12;100025.55;121696;1304;5460079;-69
2023/02/18 00:45:00;;;;;;;2.70;0.70;;;;;;;7.12;68.89;100039.89;124265;1331;115098;-69
2023/02/18 00:53:29;;;;;;;2.50;0.60;;;;;;;7.08;68.40;100049.33;125579;1303;638473;-65
2023/02/18 00:57:31;;;;;;;4.30;1.00;;;;;;;7.01;68.42;100042.66;128168;1280;129035;-67
2023/02/18 01:01:35;;;;;;;4.20;0.70;;;;;;;6.96;67.82;100044.08;127448;1286;115885;-69
2023/02/18 01:05:41;;;;;;;0.70;0.50;;;;;;;6.91;67.60;100053.00;122305;1297;5452923;-65
2023/02/18 01:09:43;;;;;;;2.40;1.10;;;;;;;6.85;67.67;100049.64;125563;1299;115423;-68
2023/02/18 01:18:10;;;;;;;;;;;;;;;;;;;;;
2023/02/18 01:22:05;;;;;;;;;;;;;;;;;;;;;
2023/02/18 01:25:52;;;;;;;3.80;1.10;;;;;;;6.64;67.17;100037.47;125938;1296;115504;-66
2023/02/18 01:30:19;;;;;;;2.20;1.00;;;;;;;6.59;67.02;100035.36;125393;1305;114888;-70
2023/02/18 01:33:46;;;;;;;;;;;;;;;;;;;;;
2023/02/18 01:37:37;;;;;;;3.40;1.20;;;;;;;6.49;66.84;100044.98;124179;1332;114977;-66
2023/02/18 01:46:14;;;;;;;4.20;1.20;;;;;;;6.44;66.91;100043.20;125677;1303;639596;-66
2023/02/18 01:50:07;;;;;;;3.20;1.30;;;;;;;6.41;66.70;100050.78;128579;1284;129367;-68
2023/02/18 01:54:29;;;;;;;5.50;1.70;;;;;;;6.37;66.49;100051.77;128610;1285;115339;-69
2023/02/18 01:58:32;;;;;;;1.00;0.70;;;;;;;6.35;66.40;100056.28;124570;1277;5421590;-69
2023/02/18 02:02:27;;;;;;;;;;;;;;;;;;;;;
2023/02/18 02:06:44;;;;;;;5.40;1.40;;;;;;;6.29;66.10;100052.42;125529;1299;115076;-67
2023/02/18 02:10:46;;;;;;;4.90;1.20;;;;;;;6.25;65.94;100056.47;124922;1326;114878;-68
2023/02/18 02:15:03;;;;;;;5.00;1.70;;;;;;;6.22;65.88;100056.23;123982;1317;129830;-69
2023/02/18 02:18:55;;;;;;;;;;;;;;;;;;;;;
2023/02/18 02:22:58;;;;;;;5.00;1.00;;;;;;;6.20;64.92;100049.39;124092;1335;114923;-68
2023/02/18 02:27:05;;;;;;;6.60;1.20;;;;;;;6.20;64.94;100055.96;124245;1317;115337;-70
2023/02/18 02:31:05;;;;;;;6.00;1.30;;;;;;;6.18;64.94;100060.60;123944;1335;114908;-65
2023/02/18 02:44:00;;;;;;;5.50;1.10;;;;;;;6.12;63.97;100063.50;128997;1276;127947;-69
2023/02/18 02:47:52;;;;;;;2.20;1.00;;;;;;;6.08;64.00;100058.83;128915;1274;114808;-69
2023/02/18 02:51:59;;;;;;;2.70;1.10;;;;;;;6.01;64.01;100069.88;125669;1266;5492528;-70
2023/02/18 02:55:54;;;;;;;;;;;;;;;;;;;;;
2023/02/18 02:59:47;;;;;;;4.90;1.00;;;;;;;5.85;63.95;100066.32;127864;1283;114850;-70
2023/02/18 03:04:01;;;;;;;3.90;1.00;;;;;;;5.80;64.34;100078.73;127765;1294;115056;-69
2023/02/18 03:07:58;;;;;;;4.30;1.00;;;;;;;5.74;64.35;100081.75;127844;1302;127607;-70
2023/02/18 03:12:01;;;;;;;4.20;1.10;;;;;;;5.73;64.47;100086.91;127824;1283;115260;-69
2023/02/18 03:16:17;;;;;;;4.00;0.90;;;;;;;5.71;64.25;100087.69;126757;1288;114804;-70
2023/02/18 03:20:23;;;;;;;3.40;1.00;;;;;;;5.66;64.12;100086.97;126985;1290;115181;-68
2023/02/18 03:24:25;;;;;;;3.30;1.20;;;;;;;5.61;64.33;100091.73;126805;1309;114943;-66
2023/02/18 03:32:33;;;;;;;2.70;0.70;;;;;;;5.52;64.22;100092.39;126732;1293;116450;-69
2023/02/18 03:36:28;;;;;;;2.80;1.00;;;;;;;5.48;64.13;100098.17;126173;1295;115015;-68
2023/02/18 03:40:23;;;;;;;4.20;1.40;;;;;;;5.47;64.35;100101.21;125845;1310;114968;-70
2023/02/18 03:44:23;;;;;;;6.20;1.20;;;;;;;5.46;64.10;100107.64;126212;1297;114897;-71
2023/02/18 03:48:25;;;;;;;4.40;1.10;;;;;;;5.41;63.98;100109.03;126231;1316;130877;-70
2023/02/18 03:56:59;;;;;;;5.20;1.50;;;;;;;5.33;63.96;100120.41;126234;1297;636883;-70
2023/02/18 04:01:01;;;;;;;5.20;1.10;;;;;;;5.26;63.95;100126.84;128108;1293;128702;-69
2023/02/18 04:04:59;;;;;;;2.80;0.90;;;;;;;5.22;63.97;100128.21;125884;1301;115276;-69
2023/02/18 04:08:59;;;;;;;3.00;0.90;;;;;;;5.19;63.87;100129.73;121400;1299;5492083;-70
2023/02/18 04:17:32;;;;;;;3.60;1.00;;;;;;;5.16;63.82;100121.65;126204;1295;636584;-72
2023/02/18 04:21:27;;;;;;;;;;;;;;;;;;;;;
2023/02/18 04:25:31;;;;;;;4.20;1.60;;;;;;;5.08;63.75;100127.20;127293;1289;114931;-71
2023/02/18 04:29:31;;;;;;;4.70;0.90;;;;;;;5.06;63.87;100127.42;122151;1301;5411476;-70
2023/02/18 04:33:32;;;;;;;4.60;0.90;;;;;;;5.04;63.74;100134.77;124963;1328;115013;-68
2023/02/18 04:41:57;;;;;;;5.80;1.60;;;;;;;5.03;63.95;100145.03;126285;1297;636042;-70
2023/02/18 04:45:53;;;;;;;4.20;1.00;;;;;;;5.02;64.01;100147.20;128336;1275;129017;-67
2023/02/18 04:49:55;;;;;;;2.60;0.90;;;;;;;5.05;63.81;100140.05;127693;1280;115386;-70
2023/02/18 04:53:57;;;;;;;5.60;1.10;;;;;;;5.08;64.01;100142.44;122833;1293;5422422;-69
2023/02/18 04:57:59;;;;;;;4.90;1.00;;;;;;;5.12;63.95;100133.29;125617;1314;114947;-67
2023/02/18 05:06:34;;;;;;;5.20;1.10;;;;;;;5.23;63.98;100129.96;125429;1303;639986;-65
2023/02/18 05:10:36;;;;;;;4.90;1.10;;;;;;;5.21;63.76;100126.63;128082;1280;128757;-68
2023/02/18 05:14:40;;;;;;;2.90;1.20;;;;;;;5.21;63.74;100125.23;127302;1289;115243;-66
2023/02/18 05:18:40;;;;;;;4.30;1.10;;;;;;;5.19;63.77;100121.57;122594;1295;5446974;-69
2023/02/18 05:27:15;;;;;;;6.60;1.20;;;;;;;5.17;63.73;100131.01;125801;1308;636093;-70
2023/02/18 05:31:18;;;;;;;5.80;1.10;;;;;;;5.19;63.77;100138.38;127172;1291;126328;-70
2023/02/18 05:35:16;;;;;;;;;;;;;;;;;;;;;
2023/02/18 05:39:12;;;;;;;;;;;;;;;;;;;;;
2023/02/18 05:43:06;;;;;;;;;;;;;;;;;;;;;
2023/02/18 05:47:38;;;;;;;;;;;;;;;;;;;;;
2023/02/18 05:51:42;;;;;;;3.40;1.60;;;;;;;5.48;63.57;100165.14;128335;1276;129065;-70
2023/02/18 05:55:42;;;;;;;;;;;;;;;;;;;;;
2023/02/18 05:59:45;;;;;;;7.80;2.60;;;;;;;5.66;63.28;100169.19;122824;1288;5429880;-70
2023/02/18 06:03:39;;;;;;;;;;;;;;;;;;;;;
2023/02/18 06:12:07;;;;;;;2.40;0.90;;;;;;;5.89;62.96;100192.90;126405;1303;636209;-70
2023/02/18 06:16:01;;;;;;;;;;;;;;;;;;;;;
2023/02/18 06:20:03;;;;;;;2.70;1.10;;;;;;;6.03;62.87;100188.61;126205;1296;115284;-70
2023/02/18 06:24:03;;;;;;;;;;;;;;;;;;;;;
2023/02/18 06:32:31;;;;;;;6.30;1.30;;;;;;;6.33;62.30;100189.57;125850;1298;636662;-70
2023/02/18 06:36:33;;;;;;;7.70;1.60;;;;;;;6.42;62.10;100188.00;127361;1306;129297;-70
2023/02/18 06:40:36;;;;;;;9.10;1.60;;;;;;;6.51;61.97;100189.15;126811;1293;115371;-67
2023/02/18 06:52:54;;;;;;;4.90;1.00;;;;;;;6.79;61.43;100197.77;125274;1302;638650;-70
2023/02/18 06:56:47;;;;;;;;;;;;;;;;;;;;;
2023/02/18 07:00:42;;;;;;;;;;;;;;;;;;;;;
2023/02/18 07:04:44;;;;;;;;;;;;;;;;;;;;;
2023/02/18 07:08:46;;;;;;;2.60;1.80;;;;;;;7.08;60.61;100199.00;121743;1300;114967;-71
2023/02/18 07:17:21;;;;;;;4.70;1.40;;;;;;;7.16;60.01;100203.85;125771;1303;638540;-72
2023/02/18 07:21:24;;;;;;;4.10;1.80;;;;;;;7.18;60.25;100205.04;126979;1290;129298;-71
2023/02/18 07:25:25;;;;;;;6.50;1.50;;;;;;;7.21;60.18;100201.00;125746;1301;114948;-71
2023/02/18 07:29:04;;;;;;;;;;;;;;;;;;;;;
2023/02/18 07:37:41;;;;;;;8.50;1.90;;;;;;;7.35;59.59;100210.61;125987;1298;638442;-71
2023/02/18 07:41:37;;;;;;;3.50;1.20;;;;;;;7.39;59.96;100217.04;127829;1287;127857;-72
2023/02/18 07:45:32;;;;;;;7.60;1.40;;;;;;;7.47;59.27;100207.70;127690;1284;115042;-71
2023/02/18 07:49:27;;;;;;;5.70;1.30;;;;;;;7.56;59.62;100206.63;123589;1294;5418362;-71
2023/02/18 07:53:29;;;;;;;3.60;1.30;;;;;;;7.65;59.61;100208.97;126223;1297;115123;-72
2023/02/18 07:57:30;;;;;;;7.50;2.20;;;;;;;7.74;59.23;100211.61;126063;1301;114961;-71
2023/02/18 08:01:21;;;;;;;2.80;1.20;;;;;;;7.83;59.27;100207.02;124789;1325;128713;-71
2023/02/18 08:13:53;;;;;;;3.60;1.50;;;;;;;8.20;58.78;100191.64;127346;1289;128203;-71
2023/02/18 08:17:54;;;;;;;6.70;1.80;;;;;;;8.35;58.90;100196.38;126191;1295;115835;-71
2023/02/18 08:21:55;;;;;;;11.70;1.50;;;;;;;8.46;58.78;100197.15;122040;1300;5428269;-71
2023/02/18 08:26:00;;;;;;;6.50;1.60;;;;;;;8.53;58.15;100196.89;126218;1296;114861;-72
2023/02/18 08:38:23;;;;;;;;;;;;;;;;;;;;;
2023/02/18 08:46:51;;;;;;;7.60;1.50;;;;;;;8.91;57.26;100185.79;125680;1303;638915;-70
2023/02/18 08:50:55;;;;;;;1.60;1.10;;;;;;;8.99;57.36;100186.19;128020;1293;127435;-71
2023/02/18 08:54:57;;;;;;;4.80;1.70;;;;;;;9.05;57.13;100190.00;126596;1289;115569;-69
2023/02/18 08:58:57;;;;;;;3.50;1.10;;;;;;;9.06;56.96;100192.44;121891;1304;5433010;-69
2023/02/18 09:02:50;;;;;;;;;;;;;;;;;;;;;
2023/02/18 09:11:17;;;;;;;2.10;1.00;;;;;;;9.09;56.59;100199.81;125173;1303;637517;-63
2023/02/18 09:19:04;;;;;;;;;;;;;;;;;;;;;
2023/02/18 09:23:08;;;;;;;2.50;1.00;;;;;;;9.20;56.82;100188.95;122575;1301;5433584;-65
2023/02/18 09:27:01;;;;;;;;;;;;;;;;;;;;;
2023/02/18 09:30:46;;;;;;;2.90;0.80;;;;;;;9.35;56.50;100186.30;125374;1304;115246;-62
2023/02/18 09:34:34;;;;;;;;;;;;;;;;;;;;;
2023/02/18 09:38:04;;;;;;;5.80;2.20;;;;;;;9.25;56.83;100187.84;124768;1307;115520;-61
2023/02/18 09:42:04;;;;;;;;;;;;;;;;;;;;;
2023/02/18 09:45:53;;;;;;;19.20;11.20;;;;;;;9.26;57.49;100183.69;124681;1317;114921;-61
2023/02/18 09:49:58;;;;;;;5.80;2.90;;;;;;;9.23;57.76;100187.78;124197;1315;114933;-64
2023/02/18 09:53:59;;;;;;;4.80;1.70;;;;;;;9.23;58.19;100187.59;124088;1312;128556;-66
2023/02/18 09:57:44;;;;;;;4.30;1.40;;;;;;;9.24;58.38;100182.20;124595;1313;117084;-65
2023/02/18 10:05:48;;;;;;;4.70;1.60;;;;;;;9.29;58.87;100179.30;125055;1304;114964;-63
2023/02/18 10:09:52;;;;;;;5.60;2.30;;;;;;;9.32;58.99;100184.17;125128;1320;114887;-64
2023/02/18 10:13:54;;;;;;;6.20;3.00;;;;;;;9.33;58.87;100183.21;124875;1307;129696;-63
2023/02/18 10:22:21;;;;;;;;;;;;;;;;;;;;;
2023/02/18 10:26:25;;;;;;;3.20;1.80;;;;;;;9.29;59.10;100168.21;127164;1289;128957;-68
2023/02/18 10:30:22;;;;;;;4.00;1.70;;;;;;;9.26;59.48;100158.58;126424;1296;115237;-67
2023/02/18 10:34:21;;;;;;;3.80;1.10;;;;;;;9.27;59.86;100152.64;122324;1293;5430358;-70
2023/02/18 10:38:04;;;;;;;;;;;;;;;9.33;60.23;100145.09;125876;1299;114951;-66
2023/02/18 10:42:07;;;;;;;4.20;1.80;;;;;;;9.34;60.21;100140.36;125842;1295;114917;-66
2023/02/18 10:46:26;;;;;;;6.00;1.80;;;;;;;9.39;60.64;100139.25;126106;1312;114888;-66
2023/02/18 10:50:39;;;;;;;7.00;2.10;;;;;;;9.40;60.53;100135.29;125890;1306;129681;-68
2023/02/18 10:54:40;;;;;;;;;;;;;;;;;;;;;
2023/02/18 10:58:45;;;;;;;4.80;1.80;;;;;;;9.24;61.05;100105.23;125254;1304;114863;-67
2023/02/18 11:02:46;;;;;;;4.10;2.10;;;;;;;9.20;61.37;100097.01;125030;1306;114916;-67
2023/02/18 11:06:34;;;;;;;14.30;2.00;;;;;;;9.14;61.89;100093.20;125370;1318;114965;-63
2023/02/18 11:10:48;;;;;;;5.20;2.10;;;;;;;9.21;62.53;100076.99;125136;1318;129796;-65
2023/02/18 11:14:53;;;;;;;11.10;2.60;;;;;;;9.34;62.43;100067.49;125331;1302;116455;-63
2023/02/18 11:18:54;;;;;;;8.10;2.10;;;;;;;9.32;62.80;100067.76;124826;1326;114983;-62
2023/02/18 11:22:42;;;;;;;6.30;1.80;;;;;;;9.36;62.47;100055.99;124772;1307;115143;-62
2023/02/18 11:26:48;;;;;;;7.90;2.10;;;;;;;9.43;63.12;100047.45;125041;1308;114898;-64
2023/02/18 11:30:42;;;;;;;8.80;2.50;;;;;;;9.48;62.91;100034.75;123776;1329;130102;-63
2023/02/18 11:34:42;;;;;;;;;;;;;;;;;;;;;
2023/02/18 11:38:49;;;;;;;8.70;3.20;;;;;;;9.65;62.98;100015.70;125743;1301;635406;-63
2023/02/18 11:42:53;;;;;;;;;;;;;;;;;;;;;
2023/02/18 11:47:00;;;;;;;;;;;;;;;;;;;;;
2023/02/18 11:51:09;;;;;;;;;;;;;;;;;;;;;
2023/02/18 11:55:13;;;;;;;;;;;;;;;;;;;;;
2023/02/18 11:59:07;;;;;;;8.10;3.10;;;;;;;9.83;63.69;99955.77;124717;1321;116427;-61
2023/02/18 12:03:12;;;;;;;6.70;3.20;;;;;;;9.83;63.90;99950.58;124714;1309;114884;-62
2023/02/18 12:11:10;;;;;;;7.90;3.50;;;;;;;9.68;64.09;99934.23;125352;1299;637974;-62
2023/02/18 12:14:32;;;;;;;11.80;4.00;;;;;;;9.60;64.39;99919.33;128164;1294;129357;-64
2023/02/18 12:18:53;;;;;;;14.30;6.70;;;;;;;9.55;64.71;99908.67;128345;1277;115738;-62
2023/02/18 12:22:55;;;;;;;;;;;;;;;;;;;;;
2023/02/18 12:26:53;;;;;;;19.80;7.80;;;;;;;9.47;65.41;99884.34;124268;1297;115026;-62
2023/02/18 12:30:57;;;;;;;16.60;6.80;;;;;;;9.41;65.73;99887.87;130265;1279;114797;-62
2023/02/18 12:34:37;;;;;;;18.60;7.70;;;;;;;9.37;66.07;99885.91;128161;1288;114933;-62
2023/02/18 12:38:44;;;;;;;14.90;6.80;;;;;;;9.31;66.38;99876.41;128179;1276;128782;-61
2023/02/18 12:42:57;;;;;;;16.50;6.90;;;;;;;9.20;66.39;99854.71;128126;1297;115596;-64
2023/02/18 12:51:31;;;;;;;;;;;;;;;;;;;;;
2023/02/18 12:55:39;;;;;;;13.80;10.20;;;;;;;8.69;67.67;99809.14;128064;1298;114909;-68
2023/02/18 12:59:48;;;;;;;16.90;7.80;;;;;;;8.58;67.98;99794.02;128479;1274;129016;-67
2023/02/18 13:03:35;;;;;;;;;;;;;;;;;;;;;
2023/02/18 13:07:46;;;;;;;;;;;;;;;;;;;;;
2023/02/18 13:11:48;;;;;;;;;;;;;;;;;;;;;
2023/02/18 13:15:26;;;;;;;18.20;8.50;;;;;;;7.80;70.21;99746.69;128571;1289;114801;-62
2023/02/18 13:19:42;;;;;;;12.70;6.50;;;;;;;7.63;70.47;99741.23;128580;1277;128942;-62
2023/02/18 13:23:42;;;;;;;18.20;7.70;;;;;;;7.49;71.18;99729.62;128186;1279;115290;-63
2023/02/18 13:27:55;;;;;;;16.20;6.90;;;;;;;7.39;71.16;99715.89;126800;1305;114864;-62
2023/02/18 13:32:02;;;;;;;;;;;;;;;;;;;;;
2023/02/18 13:36:13;;;;;;;12.10;6.90;;;;;;;7.31;72.23;99694.56;127391;1297;114979;-66
2023/02/18 13:40:03;;;;;;;;;;;;;;;;;;;;;
2023/02/18 13:44:18;;;;;;;13.00;8.60;;;;;;;7.35;72.62;99672.73;127136;1306;115310;-68
2023/02/18 13:48:36;;;;;;;;;;;;;;;;;;;;;
2023/02/18 13:52:31;;;;;;;16.60;9.60;;;;;;;7.40;73.07;99655.58;126420;1299;114926;-69
2023/02/18 14:00:34;;;;;;;;;;;;;;;;;;;;;
2023/02/18 14:04:44;;;;;;;15.40;7.70;;;;;;;7.39;73.49;99642.33;127108;1304;115466;-67
2023/02/18 14:08:53;;;;;;;19.00;10.10;;;;;;;7.39;73.96;99627.20;127690;1280;114929;-66
2023/02/18 14:12:57;;;;;;;25.40;12.30;;;;;;;7.37;74.24;99618.94;127752;1286;114938;-66
2023/02/18 14:21:02;;;;;;;10.00;7.60;;;;;;;7.36;74.59;99592.35;127853;1289;128121;-67
2023/02/18 14:25:04;;;;;;;17.70;10.10;;;;;;;7.34;75.03;99583.02;128180;1280;115983;-66
2023/02/18 14:29:00;;;;;;;;;;;;;;;;;;;;;
2023/02/18 14:33:00;;;;;;;;;;;;;;;;;;;;;
2023/02/18 14:37:17;;;;;;;23.40;12.90;;;;;;;7.33;75.64;99562.13;126335;1292;114994;-66
2023/02/18 14:45:37;;;;;;;19.80;11.80;;;;;;;7.35;76.09;99541.98;126497;1297;115874;-68
2023/02/18 14:50:08;;;;;;;21.70;13.30;;;;;;;7.38;76.45;99539.66;126753;1288;114877;-68
2023/02/18 14:53:49;;;;;;;33.60;17.40;;;;;;;7.42;76.53;99543.95;126202;1298;114942;-66
2023/02/18 14:57:56;;;;;;;34.00;18.20;;;;;;;7.43;76.70;99542.30;125715;1319;114937;-67
2023/02/18 15:02:09;;;;;;;37.00;16.10;;;;;;;7.44;76.84;99537.77;125398;1312;129697;-66
2023/02/18 15:06:11;;;;;;;27.60;16.20;;;;;;;7.48;77.02;99536.34;125976;1297;116091;-66
2023/02/18 15:10:12;;;;;;;;;;;;;;;;;;;;;
2023/02/18 15:14:07;;;;;;;;;;;;;;;;;;;;;
2023/02/18 15:18:12;;;;;;;24.60;13.90;;;;;;;7.62;77.75;99534.23;125080;1323;115361;-68
2023/02/18 15:22:22;;;;;;;19.50;11.80;;;;;;;7.68;78.03;99534.64;125022;1306;129824;-67
2023/02/18 15:26:16;;;;;;;;;;;;;;;;;;;;;
2023/02/18 15:35:01;;;;;;;;;;;;;;;;;;;;;
2023/02/18 15:39:03;;;;;;;;;;;;;;;;;;;;;
2023/02/18 15:43:08;;;;;;;9.00;4.60;;;;;;;8.18;80.61;99497.25;128419;1275;115207;-68
2023/02/18 15:47:16;;;;;;;9.70;4.30;;;;;;;8.34;80.56;99495.34;123800;1296;5429715;-68
2023/02/18 15:51:10;;;;;;;4.00;3.30;;;;;;;8.51;81.31;99486.31;127399;1286;114855;-67
2023/02/18 15:55:14;;;;;;;10.80;5.90;;;;;;;8.64;81.41;99488.80;126665;1313;115043;-68
2023/02/18 15:59:08;;;;;;;7.30;3.30;;;;;;;8.78;81.22;99479.69;125522;1322;130667;-68
2023/02/18 16:03:01;;;;;;;;;;;;;;;;;;;;;
2023/02/18 16:07:01;;;;;;;;;;;;;;;;;;;;;
2023/02/18 16:10:56;;;;;;;;;;;;;;;;;;;;;
2023/02/18 16:19:27;;;;;;;4.10;2.70;;;;;;;9.11;81.61;99470.20;125958;1306;639313;-69
2023/02/18 16:23:25;;;;;;;;;;;;;;;;;;;;;
2023/02/18 16:27:41;;;;;;;7.30;3.90;;;;;;;9.12;81.23;99467.96;127695;1302;115300;-68
2023/02/18 16:36:01;;;;;;;;;;;;;;;;;;;;;
2023/02/18 16:39:56;;;;;;;;;;;;;;;;;;;;;
2023/02/18 16:43:41;;;;;;;;;;;;;;;;;;;;;
2023/02/18 16:48:07;;;;;;;;;;;;;;;;;;;;;
2023/02/18 16:52:11;;;;;;;4.20;1.60;;;;;;;9.24;80.49;99460.52;128189;1280;128560;-66
2023/02/18 16:56:11;;;;;;;2.10;1.90;;;;;;;9.27;80.30;99460.01;127592;1287;116400;-68
2023/02/18 17:00:04;;;;;;;;;;;;;;;;;;;;;
2023/02/18 17:04:09;;;;;;;2.20;1.60;;;;;;;9.34;79.85;99471.58;127143;1287;114817;-67
2023/02/18 17:08:09;;;;;;;2.70;2.00;;;;;;;9.36;79.58;99473.23;126264;1299;114977;-66
2023/02/18 17:12:16;;;;;;;4.40;3.10;;;;;;;9.38;79.70;99478.10;125895;1302;129607;-66
2023/02/18 17:16:14;;;;;;;5.10;2.30;;;;;;;9.39;79.67;99493.71;124819;1314;115053;-67
2023/02/18 17:28:37;;;;;;;3.40;1.80;;;;;;;9.46;79.23;99499.54;125779;1303;638730;-69
2023/02/18 17:32:29;;;;;;;;;;;;;;;;;;;;;
2023/02/18 17:36:24;;;;;;;3.60;2.00;;;;;;;9.50;78.96;99523.59;127317;1305;115514;-67
2023/02/18 17:40:28;;;;;;;2.70;2.00;;;;;;;9.53;78.99;99528.20;122788;1292;5514136;-67
2023/02/18 17:44:00;;;;;;;2.80;2.50;;;;;;;9.56;78.72;99539.61;126178;1306;114875;-66
2023/02/18 17:47:32;;;;;;;0.10;0.10;;;;;;;9.59;78.66;99538.93;125866;1307;114799;-66
2023/02/18 17:51:56;;;;;;;1.90;1.40;;;;;;;9.60;78.72;99546.01;125497;1301;115440;-66
2023/02/18 17:55:26;;;;;;;3.80;2.00;;;;;;;9.62;78.63;99545.73;124409;1310;130591;-67
2023/02/18 17:58:27;;;;;;;3.60;2.20;;;;;;;9.62;78.60;99555.00;124420;1313;115352;-66
2023/02/18 18:01:48;;;;;;;2.40;2.20;;;;;;;9.61;78.81;99564.82;124297;1323;114906;-67
2023/02/18 18:05:01;;;;;;;2.00;1.60;;;;;;;9.61;78.34;99568.04;124540;1324;114983;-66
2023/02/18 18:09:03;;;;;;;6.90;3.10;;;;;;;9.61;78.54;99569.11;124667;1310;114942;-67
2023/02/18 18:12:55;;;;;;;3.90;2.40;;;;;;;9.61;78.68;99576.05;124771;1316;114984;-67
2023/02/18 18:16:57;;;;;;;2.30;2.10;;;;;;;9.61;78.65;99583.00;125259;1309;129828;-65
2023/02/18 18:20:58;;;;;;;5.40;3.40;;;;;;;9.61;78.58;99585.90;125245;1303;114972;-66
2023/02/18 18:24:49;;;;;;;;;;;;;;;;;;;;;
2023/02/18 18:28:43;;;;;;;;;;;;;;;;;;;;;
2023/02/18 18:32:46;;;;;;;3.90;2.70;;;;;;;9.57;78.85;99617.13;124708;1327;114988;-67
2023/02/18 18:36:41;;;;;;;2.90;2.70;;;;;;;9.55;78.73;99626.82;124217;1316;130024;-67
2023/02/18 18:40:20;;;;;;;;;;;;;;;;;;;;;
2023/02/18 18:48:38;;;;;;;4.30;2.90;;;;;;;9.50;79.59;99674.55;125672;1301;636716;-67
2023/02/18 18:52:22;;;;;;;4.30;3.20;;;;;;;9.42;79.71;99687.45;127233;1296;128894;-67
2023/02/18 18:56:17;;;;;;;8.90;4.80;;;;;;;9.37;79.93;99711.96;126360;1312;115386;-68
2023/02/18 19:00:24;;;;;;;6.00;2.10;;;;;;;9.25;79.85;99718.45;121677;1301;5456538;-66
2023/02/18 19:04:27;;;;;;;;;;;;;;;;;;;;;
2023/02/18 19:12:21;;;;;;;3.40;2.00;;;;;;;8.73;79.74;99738.31;124274;1316;114929;-68
2023/02/18 19:15:56;;;;;;;4.30;2.60;;;;;;;8.59;79.88;99745.40;124140;1316;129688;-68
2023/02/18 19:23:58;;;;;;;;;;;;;;;;;;;;;
2023/02/18 19:28:03;;;;;;;5.70;2.30;;;;;;;8.29;80.47;99769.41;127749;1282;128102;-67
2023/02/18 19:32:07;;;;;;;4.80;1.80;;;;;;;8.22;80.38;99788.45;127328;1283;114919;-67
2023/02/18 19:40:03;;;;;;;;;;;;;;;;;;;;;
2023/02/18 19:44:08;;;;;;;3.50;2.50;;;;;;;8.02;80.37;99803.41;126872;1292;114890;-67
2023/02/18 19:48:09;;;;;;;6.20;3.50;;;;;;;7.99;80.78;99813.91;125230;1322;129796;-67
2023/02/18 19:56:06;;;;;;;;;;;;;;;;;;;;;
2023/02/18 20:00:03;;;;;;;;;;;;;;;;;;;;;
2023/02/18 20:03:52;;;;;;;;;;;;;;;;;;;;;
2023/02/18 20:07:49;;;;;;;5.60;3.40;;;;;;;7.85;81.56;99859.86;127569;1295;114834;-67
2023/02/18 20:11:47;;;;;;;7.70;3.70;;;;;;;7.82;81.03;99867.66;124054;1278;114949;-67
2023/02/18 20:15:47;;;;;;;6.40;3.90;;;;;;;7.79;81.31;99865.48;126036;1294;115047;-67
2023/02/18 20:19:47;;;;;;;;;;;;;;;;;;;;;
2023/02/18 20:23:32;;;;;;;4.90;2.90;;;;;;;7.72;81.48;99880.01;124558;1311;128555;-67
2023/02/18 20:27:18;;;;;;;;;;;;;;;;;;;;;
2023/02/18 20:30:58;;;;;;;7.10;3.90;;;;;;;7.67;81.56;99905.86;124519;1327;115036;-68
2023/02/18 20:34:52;;;;;;;;;;;;;;;;;;;;;
2023/02/18 20:39:03;;;;;;;7.20;3.70;;;;;;;7.63;81.34;99914.84;125768;1304;636197;-67
2023/02/18 20:42:49;;;;;;;;;;;;;;;;;;;;;
2023/02/18 20:46:52;;;;;;;3.20;2.60;;;;;;;7.54;81.33;99921.65;126701;1307;114869;-66
2023/02/18 20:54:21;;;;;;;;;;;;;;;;;;;;;
2023/02/18 20:58:23;;;;;;;3.70;2.40;;;;;;;7.25;80.76;99940.11;125545;1304;114869;-66
2023/02/18 21:02:17;;;;;;;;;;;;;;;;;;;;;
2023/02/18 21:14:40;;;;;;;;;;;;;;;;;;;;;
2023/02/18 21:18:04;;;;;;;4.80;3.00;;;;;;;7.00;81.36;99977.70;123245;1290;5455098;-68
2023/02/18 21:21:13;;;;;;;3.20;2.90;;;;;;;6.98;81.63;99982.21;128545;1276;114896;-67
2023/02/18 21:25:17;;;;;;;3.90;2.80;;;;;;;6.98;81.30;99985.41;128574;1292;114884;-68
2023/02/18 21:29:04;;;;;;;5.90;3.50;;;;;;;6.96;81.55;99986.21;126957;1289;129990;-67
2023/02/18 21:33:05;;;;;;;7.40;5.40;;;;;;;6.94;81.51;99996.08;126398;1293;115437;-68
2023/02/18 21:41:32;;;;;;;;;;;;;;;;;;;;;
2023/02/18 21:50:04;;;;;;;4.70;3.60;;;;;;;6.91;81.50;100025.11;125216;1313;638700;-68
2023/02/18 21:54:06;;;;;;;5.40;3.60;;;;;;;6.85;81.20;100020.38;127820;1283;128882;-67
2023/02/18 21:58:08;;;;;;;;;;;;;;;;;;;;;
2023/02/18 22:02:43;;;;;;;;;;;;;;;;;;;;;
2023/02/18 22:06:40;;;;;;;6.10;3.40;;;;;;;6.72;80.88;100022.98;127174;1289;129075;-67
2023/02/18 22:10:33;;;;;;;5.20;3.30;;;;;;;6.64;81.13;100028.45;126252;1295;115256;-67
2023/02/18 22:14:25;;;;;;;;;;;;;;;;;;;;;
2023/02/18 22:18:14;;;;;;;3.90;3.30;;;;;;;6.57;81.26;100034.41;125074;1304;114950;-67
2023/02/18 22:22:07;;;;;;;;;;;;;;;;;;;;;
2023/02/18 22:30:43;;;;;;;5.90;3.60;;;;;;;6.56;81.21;100047.20;125898;1296;635682;-68
2023/02/18 22:34:44;;;;;;;5.40;3.90;;;;;;;6.52;81.20;100056.21;127476;1285;128620;-69
2023/02/18 22:38:23;;;;;;;5.70;3.70;;;;;;;6.51;81.30;100052.89;126420;1312;115209;-68
2023/02/18 22:42:28;;;;;;;6.20;3.90;;;;;;;6.51;81.17;100062.82;122518;1290;5456621;-68
2023/02/18 22:46:14;;;;;;;;;;;;;;;;;;;;;
2023/02/18 22:50:15;;;;;;;7.40;4.30;;;;;;;6.49;81.22;100058.09;125084;1306;114878;-68
2023/02/18 22:58:32;;;;;;;6.80;4.60;;;;;;;6.50;81.29;100072.80;126145;1303;636628;-69
2023/02/18 23:02:16;;;;;;;;;;;;;;;;;;;;;
2023/02/18 23:06:20;;;;;;;6.70;5.10;;;;;;;6.46;81.24;100063.17;127109;1290;115518;-70
2023/02/18 23:10:17;;;;;;;6.80;4.70;;;;;;;6.46;81.31;100063.17;124783;1318;5506552;-70
2023/02/18 23:22:54;;;;;;;6.70;5.40;;;;;;;6.51;81.57;100084.27;126372;1292;638419;-69
2023/02/18 23:26:57;;;;;;;7.80;5.10;;;;;;;6.51;81.49;100087.46;128744;1271;128497;-69
2023/02/18 23:30:51;;;;;;;;;;;;;;;;;;;;;
2023/02/18 23:34:56;;;;;;;6.50;4.70;;;;;;;6.53;81.69;100091.48;122426;1292;5476750;-69
2023/02/18 23:38:50;;;;;;;5.80;4.80;;;;;;;6.54;81.70;100088.77;124694;1329;114914;-67
2023/02/18 23:47:15;;;;;;;;;;;;;;;;;;;;;
2023/02/18 23:51:18;;;;;;;;;;;;;;;;;;;;;
2023/02/18 23:55:20;;;;;;;5.80;4.10;;;;;;;6.53;81.67;100081.88;125879;1300;116604;-67
2023/02/18 23:59:13;;;;;;;7.10;5.00;;;;;;;6.53;81.72;100078.87;120638;1313;5419191;-67
